createdAt,value
2018-03-04T00:00:54.070Z,68.30
2018-03-04T00:03:21.577Z,73.37
2018-03-04T00:05:49.066Z,69.75
2018-03-04T00:08:16.609Z,69.12
2018-03-04T00:10:44.891Z,67.68
2018-03-04T00:13:13.985Z,69.80
2018-03-04T00:15:42.237Z,77.93
2018-03-04T00:18:10.533Z,69.78
2018-03-04T00:20:38.802Z,73.72
2018-03-04T00:23:06.299Z,75.10
2018-03-04T00:25:33.790Z,70.78
2018-03-04T00:28:01.800Z,74.47
2018-03-04T00:30:29.316Z,73.07
2018-03-04T00:32:56.822Z,76.10
2018-03-04T00:35:24.320Z,77.75
2018-03-04T00:37:51.830Z,73.55
2018-03-04T00:40:20.233Z,69.53
2018-03-04T00:42:47.791Z,71.60
2018-03-04T00:45:15.299Z,69.45
2018-03-04T00:47:42.827Z,73.95
2018-03-04T00:50:10.366Z,83.22
2018-03-04T00:52:37.850Z,82.25
2018-03-04T00:55:05.358Z,77.93
2018-03-04T00:57:33.635Z,80.57
2018-03-04T01:00:01.890Z,79.45
2018-03-04T01:02:29.431Z,70.60
2018-03-04T01:04:56.920Z,75.12
2018-03-04T01:07:24.532Z,75.45
2018-03-04T01:09:52.065Z,69.82
2018-03-04T01:12:19.563Z,75.55
2018-03-04T01:14:47.062Z,70.43
2018-03-04T01:17:15.321Z,73.70
2018-03-04T01:19:42.802Z,69.72
2018-03-04T01:22:11.071Z,70.53
2018-03-04T01:24:39.327Z,67.30
2018-03-04T01:27:06.827Z,80.05
2018-03-04T01:29:34.326Z,69.10
2018-03-04T01:32:01.884Z,69.65
2018-03-04T01:34:29.402Z,64.70
2018-03-04T01:36:56.961Z,76.40
2018-03-04T01:39:25.249Z,69.68
2018-03-04T01:41:53.479Z,70.18
2018-03-04T01:44:21.084Z,75.22
2018-03-04T01:46:48.579Z,74.78
2018-03-04T01:49:16.088Z,76.90
2018-03-04T01:51:52.408Z,79.03
2018-03-04T01:54:19.907Z,73.68
2018-03-04T01:56:48.165Z,73.90
2018-03-04T01:59:15.659Z,72.78
2018-03-04T02:01:43.157Z,82.95
2018-03-04T02:04:10.655Z,78.15
2018-03-04T02:06:38.903Z,74.95
2018-03-04T02:09:06.487Z,78.50
2018-03-04T02:11:34.746Z,76.93
2018-03-04T02:14:02.237Z,82.30
2018-03-04T02:16:29.741Z,76.78
2018-03-04T02:18:57.220Z,73.57
2018-03-04T02:21:24.720Z,82.28
2018-03-04T02:23:52.281Z,76.32
2018-03-04T02:26:19.829Z,81.47
2018-03-04T02:28:47.335Z,82.30
2018-03-04T02:31:14.827Z,78.70
2018-03-04T02:33:43.089Z,78.45
2018-03-04T02:36:10.580Z,77.00
2018-03-04T02:38:38.117Z,78.07
2018-03-04T02:41:05.702Z,76.90
2018-03-04T02:43:33.238Z,76.87
2018-03-04T02:46:00.821Z,84.97
2018-03-04T02:48:28.314Z,76.55
2018-03-04T02:50:55.803Z,75.35
2018-03-04T02:53:23.389Z,73.18
2018-03-04T02:55:52.422Z,80.38
2018-03-04T02:58:19.936Z,89.70
2018-03-04T03:00:47.438Z,81.97
2018-03-04T03:03:14.946Z,74.28
2018-03-04T03:05:43.231Z,80.87
2018-03-04T03:08:11.515Z,78.07
2018-03-04T03:10:39.774Z,78.60
2018-03-04T03:13:07.266Z,78.75
2018-03-04T03:15:34.774Z,76.20
2018-03-04T03:18:02.267Z,70.60
2018-03-04T03:20:30.538Z,64.78
2018-03-04T03:22:58.789Z,75.68
2018-03-04T03:25:26.276Z,71.40
2018-03-04T03:27:54.534Z,72.15
2018-03-04T03:30:22.123Z,72.37
2018-03-04T03:32:49.671Z,74.82
2018-03-04T03:35:17.929Z,74.20
2018-03-04T03:37:45.501Z,76.37
2018-03-04T03:40:13.789Z,73.20
2018-03-04T03:42:42.034Z,64.80
2018-03-04T03:45:09.530Z,67.70
2018-03-04T03:47:37.066Z,73.65
2018-03-04T03:50:04.578Z,70.32
2018-03-04T03:52:32.063Z,76.32
2018-03-04T03:54:59.597Z,64.72
2018-03-04T03:57:27.074Z,70.40
2018-03-04T03:59:54.678Z,71.85
2018-03-04T04:02:22.932Z,72.30
2018-03-04T04:04:50.427Z,72.43
2018-03-04T04:07:17.983Z,73.37
2018-03-04T04:09:45.526Z,64.72
2018-03-04T04:12:13.806Z,71.40
2018-03-04T04:14:42.101Z,68.95
2018-03-04T04:17:09.646Z,81.60
2018-03-04T04:19:37.917Z,69.85
2018-03-04T04:22:06.172Z,72.25
2018-03-04T04:24:33.651Z,80.22
2018-03-04T04:27:01.925Z,71.45
2018-03-04T04:29:30.183Z,71.25
2018-03-04T04:31:57.765Z,77.70
2018-03-04T04:34:26.031Z,71.45
2018-03-04T04:36:54.317Z,72.97
2018-03-04T04:39:22.588Z,73.43
2018-03-04T04:41:50.840Z,75.28
2018-03-04T04:44:18.391Z,73.37
2018-03-04T04:46:45.992Z,77.05
2018-03-04T04:49:14.255Z,81.93
2018-03-04T04:51:42.526Z,71.85
2018-03-04T04:54:10.031Z,69.82
2018-03-04T04:56:37.617Z,75.68
2018-03-04T04:59:05.118Z,69.90
2018-03-04T05:01:33.398Z,66.75
2018-03-04T05:04:01.663Z,71.70
2018-03-04T05:06:29.941Z,65.50
2018-03-04T05:08:58.236Z,69.97
2018-03-04T05:11:25.782Z,67.65
2018-03-04T05:13:54.063Z,65.07
2018-03-04T05:16:22.338Z,62.47
2018-03-04T05:18:50.596Z,69.85
2018-03-04T05:21:18.171Z,73.70
2018-03-04T05:23:46.468Z,58.90
2018-03-04T05:26:13.956Z,64.07
2018-03-04T05:28:41.446Z,61.20
2018-03-04T05:31:08.935Z,68.30
2018-03-04T05:33:37.194Z,70.28
2018-03-04T05:36:05.463Z,71.57
2018-03-04T05:38:32.952Z,74.00
2018-03-04T05:41:00.451Z,63.22
2018-03-04T05:43:27.933Z,66.50
2018-03-04T05:45:55.431Z,66.18
2018-03-04T05:48:22.966Z,66.57
2018-03-04T05:50:51.242Z,67.62
2018-03-04T05:53:19.502Z,68.43
2018-03-04T05:55:46.995Z,68.60
2018-03-04T05:58:14.568Z,65.50
2018-03-04T06:00:42.098Z,67.60
2018-03-04T06:03:10.374Z,69.22
2018-03-04T06:05:38.646Z,70.65
2018-03-04T06:08:07.287Z,67.15
2018-03-04T06:10:34.785Z,71.93
2018-03-04T06:13:03.043Z,64.53
2018-03-04T06:15:30.556Z,62.90
2018-03-04T06:17:58.088Z,64.10
2018-03-04T06:20:26.362Z,66.85
2018-03-04T06:22:54.613Z,63.67
2018-03-04T06:25:22.106Z,65.22
2018-03-04T06:27:50.359Z,66.32
2018-03-04T06:30:17.851Z,69.20
2018-03-04T06:32:45.427Z,64.20
2018-03-04T06:35:12.977Z,66.90
2018-03-04T06:37:40.452Z,68.70
2018-03-04T06:40:07.971Z,59.78
2018-03-04T06:42:36.247Z,62.95
2018-03-04T06:45:04.524Z,63.90
2018-03-04T06:47:32.826Z,69.50
2018-03-04T06:50:00.396Z,65.30
2018-03-04T06:52:27.867Z,67.28
2018-03-04T06:54:55.364Z,69.90
2018-03-04T06:57:22.944Z,67.53
2018-03-04T06:59:51.222Z,63.60
2018-03-04T07:02:19.498Z,67.68
2018-03-04T07:04:47.776Z,70.32
2018-03-04T07:07:16.020Z,65.65
2018-03-04T07:09:43.612Z,63.97
2018-03-04T07:12:11.883Z,69.72
2018-03-04T07:14:40.158Z,70.07
2018-03-04T07:17:08.433Z,63.95
2018-03-04T07:19:36.829Z,65.45
2018-03-04T07:22:04.380Z,72.15
2018-03-04T07:24:32.658Z,70.68
2018-03-04T07:27:00.914Z,73.05
2018-03-04T07:29:28.418Z,70.30
2018-03-04T07:31:55.936Z,66.57
2018-03-04T07:34:24.183Z,68.65
2018-03-04T07:36:51.682Z,71.87
2018-03-04T07:39:20.063Z,71.50
2018-03-04T07:41:48.348Z,69.18
2018-03-04T07:44:15.841Z,65.85
2018-03-04T07:46:43.604Z,68.60
2018-03-04T07:49:11.915Z,68.50
2018-03-04T07:51:39.401Z,72.97
2018-03-04T07:54:07.008Z,67.20
2018-03-04T07:56:34.537Z,69.32
2018-03-04T07:59:02.183Z,66.78
2018-03-04T08:01:30.474Z,66.07
2018-03-04T08:03:58.014Z,74.40
2018-03-04T08:06:26.308Z,77.47
2018-03-04T08:08:53.917Z,71.72
2018-03-04T08:11:21.517Z,71.95
2018-03-04T08:13:49.785Z,66.90
2018-03-04T08:16:17.312Z,65.00
2018-03-04T08:18:45.690Z,64.78
2018-03-04T08:21:13.330Z,71.00
2018-03-04T08:23:40.876Z,71.97
2018-03-04T08:26:20.415Z,65.28
2018-03-04T08:28:48.039Z,67.45
2018-03-04T08:31:16.313Z,66.15
2018-03-04T08:33:44.612Z,66.90
2018-03-04T08:36:12.858Z,65.22
2018-03-04T08:38:40.462Z,70.10
2018-03-04T08:41:08.005Z,64.43
2018-03-04T08:43:35.499Z,63.63
2018-03-04T08:46:02.990Z,68.65
2018-03-04T08:48:30.594Z,59.78
2018-03-04T08:50:58.090Z,61.70
2018-03-04T08:53:25.617Z,61.40
2018-03-04T08:55:53.172Z,63.28
2018-03-04T08:58:20.668Z,66.37
2018-03-04T09:00:48.156Z,60.75
2018-03-04T09:03:15.675Z,60.50
2018-03-04T09:05:43.202Z,64.68
2018-03-04T09:08:10.752Z,61.25
2018-03-04T09:10:38.791Z,60.75
2018-03-04T09:13:07.082Z,60.25
2018-03-04T09:15:35.339Z,61.60
2018-03-04T09:18:02.891Z,63.13
2018-03-04T09:20:30.355Z,63.78
2018-03-04T09:22:57.860Z,61.83
2018-03-04T09:25:25.400Z,64.55
2018-03-04T09:27:53.682Z,59.90
2018-03-04T09:30:22.007Z,68.80
2018-03-04T09:32:49.604Z,59.67
2018-03-04T09:35:17.106Z,60.77
2018-03-04T09:37:44.592Z,58.90
2018-03-04T09:40:12.123Z,61.23
2018-03-04T09:42:39.610Z,58.07
2018-03-04T09:45:07.136Z,58.43
2018-03-04T09:47:34.626Z,60.20
2018-03-04T09:50:02.142Z,57.87
2018-03-04T09:52:29.686Z,57.77
2018-03-04T09:54:57.965Z,61.03
2018-03-04T09:57:25.531Z,63.00
2018-03-04T09:59:53.833Z,57.57
2018-03-04T10:02:21.362Z,55.43
2018-03-04T10:04:49.614Z,61.53
2018-03-04T10:07:17.246Z,55.63
2018-03-04T10:09:44.760Z,51.90
2018-03-04T10:12:13.169Z,56.80
2018-03-04T10:14:40.737Z,53.30
2018-03-04T10:17:08.370Z,53.77
2018-03-04T10:19:36.654Z,56.23
2018-03-04T10:22:04.195Z,60.60
2018-03-04T10:24:35.622Z,61.10
2018-03-04T10:27:03.313Z,55.20
2018-03-04T10:29:31.581Z,53.40
2018-03-04T10:31:59.889Z,64.53
2018-03-04T10:34:27.371Z,56.53
2018-03-04T10:36:54.920Z,59.30
2018-03-04T10:39:22.414Z,54.30
2018-03-04T10:41:49.970Z,52.53
2018-03-04T10:44:17.456Z,52.30
2018-03-04T10:46:45.729Z,55.80
2018-03-04T10:49:14.005Z,52.63
2018-03-04T10:51:42.256Z,53.10
2018-03-04T10:54:09.813Z,51.67
2018-03-04T10:56:37.306Z,58.77
2018-03-04T10:59:05.597Z,55.87
2018-03-04T11:01:34.875Z,57.70
2018-03-04T11:04:03.143Z,57.53
2018-03-04T11:06:30.630Z,56.67
2018-03-04T11:09:02.594Z,54.77
2018-03-04T11:11:30.087Z,57.50
2018-03-04T11:13:57.590Z,57.20
2018-03-04T11:16:25.847Z,53.87
2018-03-04T11:18:53.478Z,54.27
2018-03-04T11:21:21.007Z,55.23
2018-03-04T11:23:48.556Z,53.37
2018-03-04T11:26:16.817Z,56.70
2018-03-04T11:28:45.089Z,53.13
2018-03-04T11:31:13.358Z,58.03
2018-03-04T11:33:40.832Z,53.17
2018-03-04T11:36:09.139Z,55.93
2018-03-04T11:38:37.516Z,55.13
2018-03-04T11:41:05.027Z,54.03
2018-03-04T11:43:32.606Z,55.10
2018-03-04T11:46:00.180Z,54.83
2018-03-04T11:48:28.437Z,49.20
2018-03-04T11:50:55.942Z,58.23
2018-03-04T11:53:23.430Z,54.00
2018-03-04T11:55:51.060Z,54.90
2018-03-04T11:58:18.538Z,55.03
2018-03-04T12:00:46.057Z,54.87
2018-03-04T12:03:14.334Z,54.53
2018-03-04T12:05:41.817Z,56.43
2018-03-04T12:08:09.392Z,56.23
2018-03-04T12:10:36.879Z,53.60
2018-03-04T12:13:04.455Z,54.20
2018-03-04T12:15:32.749Z,52.90
2018-03-04T12:18:00.229Z,54.57
2018-03-04T12:20:27.747Z,50.67
2018-03-04T12:22:56.057Z,49.07
2018-03-04T12:25:23.679Z,48.10
2018-03-04T12:27:51.155Z,48.40
2018-03-04T12:30:19.735Z,50.97
2018-03-04T12:32:48.006Z,51.33
2018-03-04T12:35:16.269Z,49.20
2018-03-04T12:37:44.548Z,47.50
2018-03-04T12:40:12.183Z,51.93
2018-03-04T12:42:39.666Z,49.97
2018-03-04T12:45:07.209Z,50.20
2018-03-04T12:47:34.698Z,52.60
2018-03-04T12:50:02.950Z,52.20
2018-03-04T12:52:30.622Z,50.23
2018-03-04T12:54:58.115Z,52.17
2018-03-04T12:57:25.631Z,49.87
2018-03-04T12:59:53.107Z,50.30
2018-03-04T13:02:21.366Z,49.97
2018-03-04T13:04:48.880Z,50.63
2018-03-04T13:07:16.396Z,49.07
2018-03-04T13:09:43.880Z,51.90
2018-03-04T13:12:11.423Z,51.10
2018-03-04T13:14:39.687Z,50.47
2018-03-04T13:17:07.166Z,44.37
2018-03-04T13:19:35.406Z,47.60
2018-03-04T13:22:02.893Z,49.30
2018-03-04T13:24:31.156Z,46.10
2018-03-04T13:26:58.630Z,46.73
2018-03-04T13:29:26.946Z,49.23
2018-03-04T13:31:54.434Z,46.37
2018-03-04T13:34:21.984Z,48.73
2018-03-04T13:36:49.489Z,48.73
2018-03-04T13:39:17.741Z,46.07
2018-03-04T13:41:46.038Z,50.93
2018-03-04T13:44:14.287Z,48.57
2018-03-04T13:46:41.770Z,46.60
2018-03-04T13:49:10.026Z,48.57
2018-03-04T13:51:37.523Z,47.57
2018-03-04T13:54:05.007Z,44.83
2018-03-04T13:56:32.510Z,45.40
2018-03-04T13:59:00.771Z,49.27
2018-03-04T14:01:28.277Z,43.13
2018-03-04T14:03:55.805Z,46.43
2018-03-04T14:06:24.070Z,46.20
2018-03-04T14:08:51.570Z,46.03
2018-03-04T14:11:19.060Z,47.07
2018-03-04T14:13:46.540Z,45.30
2018-03-04T14:16:14.046Z,45.13
2018-03-04T14:18:41.538Z,45.33
2018-03-04T14:21:09.167Z,47.83
2018-03-04T14:23:38.701Z,44.97
2018-03-04T14:26:06.189Z,45.70
2018-03-04T14:28:33.769Z,49.07
2018-03-04T14:31:02.086Z,47.90
2018-03-04T14:33:29.567Z,44.33
2018-03-04T14:35:57.082Z,50.37
2018-03-04T14:38:24.644Z,49.30
2018-03-04T14:40:52.159Z,50.73
2018-03-04T14:43:19.707Z,45.13
2018-03-04T14:45:47.289Z,45.10
2018-03-04T14:48:15.585Z,48.60
2018-03-04T14:50:43.134Z,44.87
2018-03-04T14:53:11.397Z,47.50
2018-03-04T14:55:38.886Z,43.90
2018-03-04T14:58:06.377Z,43.77
2018-03-04T15:00:33.887Z,46.17
2018-03-04T15:03:02.142Z,42.40
2018-03-04T15:05:29.718Z,45.10
2018-03-04T15:07:57.977Z,46.30
2018-03-04T15:10:25.561Z,45.03
2018-03-04T15:12:53.830Z,41.77
2018-03-04T15:15:22.109Z,39.17
2018-03-04T15:17:50.361Z,39.23
2018-03-04T15:20:17.879Z,40.30
2018-03-04T15:22:45.378Z,43.63
2018-03-04T15:25:12.962Z,45.20
2018-03-04T15:27:41.222Z,45.57
2018-03-04T15:30:08.734Z,43.23
2018-03-04T15:32:36.258Z,43.60
2018-03-04T15:35:04.534Z,42.30
2018-03-04T15:37:32.836Z,41.97
2018-03-04T15:40:01.283Z,41.30
2018-03-04T15:42:29.638Z,45.03
2018-03-04T15:44:57.151Z,41.80
2018-03-04T15:47:24.659Z,46.20
2018-03-04T15:49:52.178Z,42.43
2018-03-04T15:52:20.545Z,44.10
2018-03-04T15:54:48.060Z,46.77
2018-03-04T15:57:15.647Z,45.43
2018-03-04T15:59:43.922Z,45.47
2018-03-04T16:02:12.238Z,49.40
2018-03-04T16:04:39.703Z,49.70
2018-03-04T16:07:07.196Z,46.50
2018-03-04T16:09:34.685Z,49.37
2018-03-04T16:12:02.174Z,49.77
2018-03-04T16:14:29.678Z,48.63
2018-03-04T16:16:57.952Z,43.93
2018-03-04T16:19:25.444Z,52.77
2018-03-04T16:21:52.992Z,69.63
2018-03-04T16:24:20.565Z,49.47
2018-03-04T16:26:48.059Z,48.83
2018-03-04T16:29:15.545Z,49.93
2018-03-04T16:31:43.853Z,54.07
2018-03-04T16:34:11.508Z,50.47
2018-03-04T16:36:38.999Z,50.70
2018-03-04T16:39:06.497Z,53.37
2018-03-04T16:41:34.751Z,53.63
2018-03-04T16:44:02.249Z,58.33
2018-03-04T16:46:30.535Z,50.28
2018-03-04T16:48:58.808Z,49.67
2018-03-04T16:51:26.309Z,53.67
2018-03-04T16:53:53.903Z,53.50
2018-03-04T16:56:22.890Z,60.13
2018-03-04T16:58:51.198Z,60.80
2018-03-04T17:01:19.467Z,55.33
2018-03-04T17:03:47.749Z,51.30
2018-03-04T17:06:16.007Z,57.50
2018-03-04T17:08:43.510Z,58.70
2018-03-04T17:11:11.013Z,53.90
2018-03-04T17:13:38.519Z,61.72
2018-03-04T17:16:06.027Z,61.85
2018-03-04T17:18:33.522Z,59.47
2018-03-04T17:21:01.015Z,54.60
2018-03-04T17:23:28.529Z,52.28
2018-03-04T17:25:56.784Z,58.38
2018-03-04T17:28:24.290Z,54.80
2018-03-04T17:30:51.785Z,58.20
2018-03-04T17:33:19.898Z,55.12
2018-03-04T17:35:48.146Z,53.90
2018-03-04T17:38:15.747Z,53.47
2018-03-04T17:40:43.268Z,53.35
2018-03-04T17:43:10.774Z,53.75
2018-03-04T17:45:38.306Z,53.30
2018-03-04T17:48:06.588Z,53.85
2018-03-04T17:50:34.860Z,53.30
2018-03-04T17:53:03.108Z,58.10
2018-03-04T17:55:30.694Z,53.85
2018-03-04T17:57:58.989Z,54.00
2018-03-04T18:00:26.503Z,57.08
2018-03-04T18:02:54.179Z,53.95
2018-03-04T18:05:21.765Z,57.40
2018-03-04T18:07:50.019Z,54.10
2018-03-04T18:10:18.278Z,56.45
2018-03-04T18:12:47.272Z,59.33
2018-03-04T18:15:14.907Z,56.95
2018-03-04T18:17:42.390Z,56.78
2018-03-04T18:20:09.940Z,55.05
2018-03-04T18:22:37.619Z,53.30
2018-03-04T18:25:05.172Z,56.63
2018-03-04T18:27:32.701Z,53.60
2018-03-04T18:30:00.200Z,55.03
2018-03-04T18:32:27.674Z,55.67
2018-03-04T18:34:55.167Z,57.47
2018-03-04T18:37:22.651Z,52.33
2018-03-04T18:39:50.259Z,55.97
2018-03-04T18:42:18.538Z,55.90
2018-03-04T18:44:47.000Z,58.28
2018-03-04T18:47:14.550Z,49.42
2018-03-04T18:49:42.051Z,53.45
2018-03-04T18:52:09.539Z,51.22
2018-03-04T18:54:37.039Z,58.40
2018-03-04T18:57:05.293Z,54.78
2018-03-04T18:59:32.851Z,54.90
2018-03-04T19:02:00.371Z,51.70
2018-03-04T19:04:27.879Z,56.33
2018-03-04T19:06:55.379Z,54.47
2018-03-04T19:09:22.918Z,50.45
2018-03-04T19:11:50.402Z,55.20
2018-03-04T19:14:17.884Z,56.40
2018-03-04T19:16:45.383Z,53.33
2018-03-04T19:19:12.958Z,55.70
2018-03-04T19:21:41.213Z,54.75
2018-03-04T19:24:08.707Z,55.40
2018-03-04T19:26:36.196Z,57.83
2018-03-04T19:29:03.846Z,56.53
2018-03-04T19:31:31.337Z,60.00
2018-03-04T19:33:58.823Z,66.85
2018-03-04T19:36:27.253Z,74.30
2018-03-04T19:38:54.782Z,60.42
2018-03-04T19:41:22.281Z,61.08
2018-03-04T19:43:50.809Z,56.40
2018-03-04T19:46:19.123Z,60.00
2018-03-04T19:48:46.761Z,52.92
2018-03-04T19:51:14.406Z,53.35
2018-03-04T19:53:42.699Z,59.80
2018-03-04T19:56:10.211Z,55.50
2018-03-04T19:58:38.198Z,53.67
2018-03-04T20:01:07.210Z,53.50
2018-03-04T20:03:37.916Z,55.25
2018-03-04T20:06:05.930Z,56.50
2018-03-04T20:08:33.434Z,55.35
2018-03-04T20:11:00.963Z,55.60
2018-03-04T20:13:28.618Z,54.80
2018-03-04T20:15:56.101Z,56.47
2018-03-04T20:18:23.615Z,57.28
2018-03-04T20:20:51.158Z,55.80
2018-03-04T20:23:19.482Z,54.35
2018-03-04T20:25:46.979Z,53.17
2018-03-04T20:28:14.735Z,56.17
2018-03-04T20:30:43.011Z,55.97
2018-03-04T20:33:11.064Z,50.83
2018-03-04T20:35:39.071Z,54.90
2018-03-04T20:38:06.611Z,56.67
2018-03-04T20:40:34.212Z,54.30
2018-03-04T20:43:03.182Z,54.25
2018-03-04T20:45:30.767Z,57.70
2018-03-04T20:47:59.074Z,54.33
2018-03-04T20:50:26.742Z,53.40
2018-03-04T20:52:54.286Z,52.55
2018-03-04T20:55:21.790Z,54.60
2018-03-04T20:57:49.466Z,55.42
2018-03-04T21:00:17.043Z,81.78
2018-03-04T21:02:45.331Z,51.88
2018-03-04T21:05:13.599Z,51.85
2018-03-04T21:07:41.911Z,55.72
2018-03-04T21:10:09.397Z,55.00
2018-03-04T21:12:36.966Z,52.28
2018-03-04T21:15:04.540Z,51.78
2018-03-04T21:17:36.481Z,54.85
2018-03-04T21:20:04.020Z,55.25
2018-03-04T21:22:31.632Z,56.75
2018-03-04T21:24:59.898Z,51.78
2018-03-04T21:27:28.186Z,55.42
2018-03-04T21:29:56.444Z,55.83
2018-03-04T21:32:24.004Z,56.15
2018-03-04T21:34:51.624Z,56.25
2018-03-04T21:37:19.157Z,55.00
2018-03-04T21:39:47.412Z,56.42
2018-03-04T21:42:15.729Z,52.95
2018-03-04T21:44:43.213Z,55.05
2018-03-04T21:47:11.025Z,54.88
2018-03-04T21:49:38.510Z,57.90
2018-03-04T21:52:06.006Z,54.58
2018-03-04T21:54:33.499Z,57.00
2018-03-04T21:57:01.772Z,53.25
2018-03-04T21:59:30.067Z,53.17
2018-03-04T22:01:57.582Z,65.05
2018-03-04T22:04:25.074Z,52.55
2018-03-04T22:06:53.331Z,52.38
2018-03-04T22:09:20.866Z,54.53
2018-03-04T22:11:48.352Z,51.63
2018-03-04T22:14:16.814Z,57.78
2018-03-04T22:16:44.300Z,54.03
2018-03-04T22:19:12.632Z,53.03
2018-03-04T22:21:40.158Z,55.33
2018-03-04T22:24:07.659Z,54.92
2018-03-04T22:26:35.257Z,57.35
2018-03-04T22:29:03.514Z,54.38
2018-03-04T22:31:31.020Z,52.17
2018-03-04T22:33:58.502Z,53.05
2018-03-04T22:36:26.015Z,51.15
2018-03-04T22:38:54.287Z,50.40
2018-03-04T22:41:22.583Z,55.30
2018-03-04T22:43:50.063Z,52.00
2018-03-04T22:46:17.542Z,56.63
2018-03-04T22:48:45.027Z,55.85
2018-03-04T22:51:13.310Z,54.30
2018-03-04T22:53:41.565Z,56.83
2018-03-04T22:56:09.057Z,56.05
2018-03-04T22:58:36.554Z,51.58
2018-03-04T23:01:04.038Z,53.72
2018-03-04T23:03:31.537Z,57.13
2018-03-04T23:05:59.014Z,54.95
2018-03-04T23:08:26.532Z,58.45
2018-03-04T23:10:54.795Z,58.83
2018-03-04T23:13:22.309Z,57.40
2018-03-04T23:15:49.788Z,57.67
2018-03-04T23:18:17.288Z,62.67
2018-03-04T23:20:46.076Z,58.17
2018-03-04T23:23:14.342Z,60.03
2018-03-04T23:25:41.823Z,60.38
2018-03-04T23:28:10.098Z,58.30
2018-03-04T23:30:38.392Z,56.25
2018-03-04T23:33:05.922Z,60.22
2018-03-04T23:35:34.180Z,56.35
2018-03-04T23:38:01.669Z,57.13
2018-03-04T23:40:29.927Z,57.35
2018-03-04T23:42:58.228Z,60.10
2018-03-04T23:45:25.775Z,59.28
2018-03-04T23:47:54.060Z,60.20
2018-03-04T23:50:21.622Z,52.65
2018-03-04T23:52:49.106Z,58.42
2018-03-04T23:55:16.599Z,62.42
2018-03-04T23:57:44.191Z,57.25
